Time;durP1;ratioP1;P1;durP2;ratioP2;P2;SDS_P1;SDS_P2;PMS_P1;PMS_P2;Temp;Humidity;BMP_temperature;BMP_pressure;BME280_temperature;BME280_humidity;BME280_pressure;Samples;Min_cycle;Max_cycle;Signal;HPM_P1;HPM_P2
2023/04/30 00:00:52;;;;;;;21.08;18.83;;;19.60;1.00;;;;;;5036369;28;20030;-62
2023/04/30 00:03:17;;;;;;;21.70;19.45;;;19.60;1.00;;;;;;5036501;28;20052;-62
2023/04/30 00:05:43;;;;;;;21.48;18.48;;;19.60;1.00;;;;;;5035897;28;20034;-62
2023/04/30 00:08:08;;;;;;;22.50;18.50;;;19.60;1.00;;;;;;5036668;28;20084;-62
2023/04/30 00:10:34;;;;;;;20.55;18.52;;;19.60;1.00;;;;;;5036333;28;20391;-62
2023/04/30 00:13:00;;;;;;;20.70;18.60;;;19.50;1.00;;;;;;5035698;28;20036;-62
2023/04/30 00:15:25;;;;;;;21.92;18.80;;;19.50;1.00;;;;;;5035103;28;20065;-62
2023/04/30 00:17:57;;;;;;;21.45;18.45;;;19.50;1.00;;;;;;5033057;28;20022;-62
2023/04/30 00:20:22;;;;;;;22.95;20.75;;;19.50;1.00;;;;;;5033303;28;20479;-62
2023/04/30 00:22:48;;;;;;;22.80;18.48;;;19.40;1.00;;;;;;5035703;28;20028;-62
2023/04/30 00:25:14;;;;;;;20.73;18.65;;;19.40;1.00;;;;;;5035999;28;20029;-62
2023/04/30 00:27:40;;;;;;;25.90;20.90;;;19.40;1.00;;;;;;5035651;28;20026;-62
2023/04/30 00:30:06;;;;;;;23.05;20.67;;;19.40;1.00;;;;;;5035352;28;20061;-62
2023/04/30 00:32:32;;;;;;;20.77;18.83;;;19.40;1.00;;;;;;5035929;28;20040;-62
2023/04/30 00:34:59;;;;;;;22.85;20.55;;;19.40;1.00;;;;;;5035513;28;20049;-62
2023/04/30 00:37:24;;;;;;;22.92;19.90;;;19.40;1.00;;;;;;5035678;28;20028;-62
2023/04/30 00:39:50;;;;;;;22.30;19.90;;;19.40;1.00;;;;;;5018320;28;20054;-62
2023/04/30 00:42:16;;;;;;;20.92;18.80;;;19.40;1.00;;;;;;5030561;28;20470;-62
2023/04/30 00:44:41;;;;;;;22.10;19.73;;;19.40;1.00;;;;;;5034244;28;20039;-62
2023/04/30 00:47:07;;;;;;;21.83;19.20;;;19.30;1.00;;;;;;5034692;28;20025;-62
2023/04/30 00:49:33;;;;;;;22.23;19.77;;;19.30;1.00;;;;;;5033578;28;20479;-62
2023/04/30 00:51:58;;;;;;;21.55;19.20;;;19.20;1.00;;;;;;5034190;28;20026;-62
2023/04/30 00:54:24;;;;;;;22.83;19.48;;;19.20;1.00;;;;;;5033661;28;20048;-62
2023/04/30 00:56:50;;;;;;;21.90;19.60;;;19.20;1.00;;;;;;5033722;28;20033;-62
2023/04/30 00:59:16;;;;;;;21.27;19.15;;;19.20;1.00;;;;;;5034344;28;20079;-62
2023/04/30 01:01:42;;;;;;;21.05;18.17;;;19.20;1.00;;;;;;5033826;28;20029;-62
2023/04/30 01:04:08;;;;;;;21.27;19.08;;;19.20;1.00;;;;;;5034014;28;20061;-62
2023/04/30 01:06:34;;;;;;;20.77;18.77;;;19.10;1.00;;;;;;5034087;28;20072;-62
2023/04/30 01:09:00;;;;;;;20.30;18.30;;;19.10;1.00;;;;;;5033521;28;20447;-62
2023/04/30 01:11:40;;;;;;;22.17;20.02;;;19.10;1.00;;;;;;5033076;28;20033;-62
2023/04/30 01:14:20;;;;;;;21.13;18.75;;;19.10;1.00;;;;;;5034014;28;20456;-62
2023/04/30 01:17:12;;;;;;;20.52;18.50;;;19.10;1.00;;;;;;5031917;28;20497;-62
2023/04/30 01:19:41;;;;;;;22.55;20.15;;;19.10;1.00;;;;;;5026294;28;20029;-62
2023/04/30 01:22:30;;;;;;;22.60;20.25;;;19.10;1.00;;;;;;5033315;28;20448;-62
2023/04/30 01:25:10;;;;;;;21.88;19.65;;;19.10;1.00;;;;;;5033656;28;20044;-62
2023/04/30 01:28:08;;;;;;;21.23;19.13;;;19.10;1.00;;;;;;5023730;28;20034;-62
2023/04/30 01:30:34;;;;;;;23.02;19.38;;;19.10;1.00;;;;;;5032381;28;20073;-62
2023/04/30 01:33:01;;;;;;;21.42;19.13;;;19.00;1.00;;;;;;5032214;28;20022;-62
2023/04/30 01:35:47;;;;;;;21.27;18.98;;;19.00;1.00;;;;;;5032275;28;20112;-62
2023/04/30 01:38:33;;;;;;;21.23;19.02;;;19.00;1.00;;;;;;4991583;28;1212639;-61
2023/04/30 01:41:14;;;;;;;22.20;19.95;;;19.00;1.00;;;;;;5034234;28;20057;-62
2023/04/30 01:43:56;;;;;;;23.38;21.08;;;19.00;1.00;;;;;;5033337;28;20025;-62
2023/04/30 01:46:28;;;;;;;22.65;20.33;;;19.00;1.00;;;;;;5026809;28;20030;-62
2023/04/30 01:49:03;;;;;;;21.85;19.52;;;18.90;1.00;;;;;;5044944;28;20068;-62
2023/04/30 01:51:41;;;;;;;;;;;19.00;1.00;;;;;;5038413;28;20036;-62
2023/04/30 01:54:35;;;;;;;21.55;19.45;;;18.90;1.00;;;;;;5054653;28;19938;-62
2023/04/30 01:57:06;;;;;;;23.33;20.77;;;18.90;1.00;;;;;;5040597;28;20018;-62
2023/04/30 01:59:34;;;;;;;24.00;21.58;;;18.90;1.00;;;;;;5039084;28;20044;-62
2023/04/30 02:02:01;;;;;;;23.40;21.20;;;18.90;1.00;;;;;;5042977;28;20105;-62
2023/04/30 02:04:27;;;;;;;22.58;20.17;;;18.90;1.00;;;;;;5034090;28;20025;-61
2023/04/30 02:06:52;;;;;;;24.23;21.65;;;19.00;1.00;;;;;;5030067;28;20049;-62
2023/04/30 02:09:18;;;;;;;24.05;20.45;;;19.00;1.00;;;;;;5043739;28;20117;-62
2023/04/30 02:11:44;;;;;;;23.95;21.55;;;19.00;1.00;;;;;;5032512;28;20037;-62
2023/04/30 02:14:09;;;;;;;24.75;22.25;;;18.90;1.00;;;;;;5034371;28;20026;-62
2023/04/30 02:16:35;;;;;;;25.55;22.98;;;18.90;1.00;;;;;;5033381;28;20037;-62
2023/04/30 02:19:01;;;;;;;25.48;22.20;;;18.90;1.00;;;;;;5032820;28;20021;-62
2023/04/30 02:21:27;;;;;;;25.83;23.25;;;18.80;1.00;;;;;;5032225;28;20037;-62
2023/04/30 02:23:53;;;;;;;26.70;22.23;;;18.90;1.00;;;;;;5023504;28;20501;-62
2023/04/30 02:26:18;;;;;;;24.70;21.92;;;18.90;1.00;;;;;;5041281;28;20030;-62
2023/04/30 02:28:44;;;;;;;25.48;21.77;;;18.90;1.00;;;;;;5033745;28;20057;-62
2023/04/30 02:31:10;;;;;;;26.17;23.38;;;18.90;1.00;;;;;;5032262;28;20030;-62
2023/04/30 02:33:36;;;;;;;27.58;24.15;;;18.90;1.00;;;;;;5033638;28;20026;-62
2023/04/30 02:36:01;;;;;;;27.23;24.45;;;18.90;1.00;;;;;;5033606;28;20463;-62
2023/04/30 02:38:27;;;;;;;26.17;23.55;;;18.90;1.00;;;;;;5033370;28;20483;-62
2023/04/30 02:40:53;;;;;;;27.98;23.95;;;18.90;1.00;;;;;;5032787;28;20044;-62
2023/04/30 02:43:18;;;;;;;27.80;24.98;;;18.90;1.00;;;;;;5033631;28;20029;-62
2023/04/30 02:45:45;;;;;;;27.88;24.30;;;18.90;1.00;;;;;;5033446;28;20037;-62
2023/04/30 02:48:10;;;;;;;26.10;23.45;;;18.90;1.00;;;;;;5033665;28;20040;-62
2023/04/30 02:50:36;;;;;;;27.02;24.23;;;18.90;1.00;;;;;;5033145;28;20109;-62
2023/04/30 02:53:02;;;;;;;28.48;25.42;;;18.90;1.00;;;;;;5033404;28;20446;-62
2023/04/30 02:55:27;;;;;;;29.42;25.65;;;18.80;1.00;;;;;;5032946;28;20041;-62
2023/04/30 02:57:53;;;;;;;27.27;23.83;;;18.80;1.00;;;;;;5033470;28;20032;-62
2023/04/30 03:00:19;;;;;;;27.20;24.33;;;18.80;1.00;;;;;;5045725;28;20032;-62
2023/04/30 03:03:10;;;;;;;27.27;23.50;;;18.80;1.00;;;;;;5031391;28;20021;-62
2023/04/30 03:05:35;;;;;;;25.70;22.98;;;18.70;1.00;;;;;;5032934;28;20017;-62
2023/04/30 03:08:01;;;;;;;25.60;22.63;;;18.70;1.00;;;;;;5033164;28;20033;-62
2023/04/30 03:10:27;;;;;;;26.08;22.92;;;18.70;1.00;;;;;;5031931;28;20113;-62
2023/04/30 03:12:53;;;;;;;25.23;22.73;;;18.70;1.00;;;;;;5033404;28;20021;-62
2023/04/30 03:15:18;;;;;;;25.80;23.02;;;18.70;1.00;;;;;;5032568;28;20037;-63
2023/04/30 03:17:44;;;;;;;24.17;21.60;;;18.60;1.00;;;;;;5032760;28;20467;-62
2023/04/30 03:20:10;;;;;;;25.55;22.95;;;18.70;1.00;;;;;;5032211;28;20067;-62
2023/04/30 03:22:36;;;;;;;24.27;21.98;;;18.60;1.00;;;;;;5033111;28;20026;-62
2023/04/30 03:25:01;;;;;;;25.08;22.48;;;18.60;1.00;;;;;;5032712;28;20072;-62
2023/04/30 03:27:27;;;;;;;26.60;23.98;;;18.60;1.00;;;;;;5033193;28;20471;-62
2023/04/30 03:29:52;;;;;;;25.83;22.90;;;18.60;1.00;;;;;;5032718;28;20034;-62
2023/04/30 03:32:18;;;;;;;26.27;22.20;;;18.50;1.00;;;;;;5032619;28;20033;-62
2023/04/30 03:34:44;;;;;;;24.75;22.15;;;18.60;1.00;;;;;;5032667;28;20565;-62
2023/04/30 03:37:09;;;;;;;26.83;24.13;;;18.50;1.00;;;;;;5032682;28;20098;-62
2023/04/30 03:39:38;;;;;;;26.08;22.60;;;18.50;1.00;;;;;;5032555;28;20076;-62
2023/04/30 03:42:03;;;;;;;26.20;23.40;;;18.60;1.00;;;;;;5032616;28;20040;-62
2023/04/30 03:44:29;;;;;;;31.27;24.38;;;18.50;1.00;;;;;;5031546;28;20399;-62
2023/04/30 03:46:55;;;;;;;26.67;23.80;;;18.50;1.00;;;;;;5032067;28;20033;-62
2023/04/30 03:49:20;;;;;;;28.83;25.05;;;18.50;1.00;;;;;;5033118;28;20022;-62
2023/04/30 03:51:46;;;;;;;28.15;23.80;;;18.50;1.00;;;;;;5032131;28;20026;-62
2023/04/30 03:54:12;;;;;;;26.48;23.77;;;18.50;1.00;;;;;;5032385;28;20160;-62
2023/04/30 03:56:37;;;;;;;28.02;24.65;;;18.50;1.00;;;;;;5032532;28;20112;-62
2023/04/30 03:59:04;;;;;;;27.17;23.67;;;18.50;1.00;;;;;;5035609;28;20111;-62
2023/04/30 04:01:32;;;;;;;26.35;23.55;;;18.40;1.00;;;;;;5032515;28;20029;-62
2023/04/30 04:03:58;;;;;;;29.52;23.92;;;18.40;1.00;;;;;;5032676;28;20034;-62
2023/04/30 04:06:23;;;;;;;27.23;24.08;;;18.30;1.00;;;;;;5031150;28;20467;-62
2023/04/30 04:08:49;;;;;;;28.45;23.58;;;18.30;1.00;;;;;;5026731;28;20033;-62
2023/04/30 04:11:15;;;;;;;27.83;23.85;;;18.30;1.00;;;;;;5031066;28;20053;-62
2023/04/30 04:13:41;;;;;;;26.60;23.80;;;18.30;1.00;;;;;;5032472;28;20363;-62
2023/04/30 04:16:07;;;;;;;30.52;24.25;;;18.30;1.00;;;;;;5031994;28;20033;-62
2023/04/30 04:18:33;;;;;;;27.10;23.63;;;18.30;1.00;;;;;;5031963;28;20036;-62
2023/04/30 04:21:00;;;;;;;27.08;23.90;;;18.30;1.00;;;;;;5032307;28;20467;-62
2023/04/30 04:23:25;;;;;;;27.17;24.40;;;18.20;1.00;;;;;;5030886;28;20048;-62
2023/04/30 04:25:51;;;;;;;28.50;25.40;;;18.20;1.00;;;;;;5032363;28;20542;-62
2023/04/30 04:28:17;;;;;;;26.65;23.85;;;18.10;1.00;;;;;;5032845;28;20026;-62
2023/04/30 04:30:43;;;;;;;29.27;25.23;;;18.20;1.00;;;;;;5034853;28;20087;-62
2023/04/30 04:33:12;;;;;;;26.77;23.98;;;18.20;1.00;;;;;;5035518;28;20018;-62
2023/04/30 04:35:37;;;;;;;27.77;24.13;;;18.30;1.00;;;;;;5036109;28;20045;-62
2023/04/30 04:38:03;;;;;;;26.55;23.75;;;18.30;1.00;;;;;;5035190;28;20064;-62
2023/04/30 04:40:29;;;;;;;27.48;24.58;;;18.30;1.00;;;;;;5035798;28;20032;-62
2023/04/30 04:42:55;;;;;;;28.75;23.55;;;18.30;1.00;;;;;;5035716;28;20156;-62
2023/04/30 04:45:21;;;;;;;25.55;22.40;;;18.30;1.00;;;;;;5035393;28;20102;-62
2023/04/30 04:47:47;;;;;;;27.63;24.67;;;18.30;1.00;;;;;;5036060;28;20022;-62
2023/04/30 04:50:13;;;;;;;27.67;24.77;;;18.20;1.00;;;;;;5035193;28;20395;-62
2023/04/30 04:52:38;;;;;;;28.67;25.77;;;18.20;1.00;;;;;;5035901;28;20111;-62
2023/04/30 04:55:06;;;;;;;28.67;25.63;;;18.20;1.00;;;;;;5035234;28;20394;-62
2023/04/30 04:57:31;;;;;;;29.20;26.10;;;18.20;1.00;;;;;;5033321;28;20071;-62
2023/04/30 04:59:57;;;;;;;28.73;25.50;;;18.30;1.00;;;;;;5045723;28;20636;-62
2023/04/30 05:02:23;;;;;;;33.00;26.52;;;18.20;1.00;;;;;;5036010;28;20083;-62
2023/04/30 05:04:51;;;;;;;28.98;26.08;;;18.20;1.00;;;;;;5035481;28;20018;-62
2023/04/30 05:07:17;;;;;;;29.95;26.80;;;18.20;1.00;;;;;;5035180;28;20029;-62
2023/04/30 05:09:46;;;;;;;29.27;26.20;;;18.20;1.00;;;;;;5035435;28;20398;-62
2023/04/30 05:12:12;;;;;;;30.25;26.45;;;18.10;1.00;;;;;;5034725;28;20036;-62
2023/04/30 05:14:38;;;;;;;30.80;26.30;;;18.10;1.00;;;;;;5034872;28;20379;-62
2023/04/30 05:17:03;;;;;;;28.23;24.98;;;18.00;1.00;;;;;;5034995;28;20025;-62
2023/04/30 05:19:33;;;;;;;28.00;24.75;;;18.10;1.00;;;;;;5034186;28;20049;-62
2023/04/30 05:22:00;;;;;;;26.67;23.92;;;18.00;1.00;;;;;;5048145;28;20044;-62
2023/04/30 05:24:26;;;;;;;30.33;25.27;;;18.10;1.00;;;;;;5053297;28;20032;-62
2023/04/30 05:26:52;;;;;;;29.10;24.58;;;18.10;1.00;;;;;;5044664;28;20017;-62
2023/04/30 05:29:18;;;;;;;28.30;25.45;;;18.10;1.00;;;;;;5047891;28;20096;-62
2023/04/30 05:31:44;;;;;;;28.95;24.85;;;18.10;1.00;;;;;;5045143;28;20029;-62
2023/04/30 05:34:10;;;;;;;27.60;24.60;;;18.10;1.00;;;;;;5051314;28;20032;-62
2023/04/30 05:36:35;;;;;;;27.02;24.15;;;18.10;1.00;;;;;;5049599;28;20402;-62
2023/04/30 05:39:01;;;;;;;26.95;24.25;;;18.10;1.00;;;;;;5046474;28;20049;-62
2023/04/30 05:41:26;;;;;;;27.08;24.02;;;18.20;1.00;;;;;;5046993;28;20040;-62
2023/04/30 05:43:52;;;;;;;25.42;22.83;;;18.10;1.00;;;;;;5046956;28;20028;-62
2023/04/30 05:46:18;;;;;;;26.60;23.85;;;18.10;1.00;;;;;;5047342;28;20111;-63
2023/04/30 05:48:43;;;;;;;25.83;23.23;;;18.20;1.00;;;;;;5047291;28;20531;-62
2023/04/30 05:51:09;;;;;;;26.48;23.75;;;18.20;1.00;;;;;;5049256;28;20102;-62
2023/04/30 05:53:35;;;;;;;24.73;22.17;;;18.10;1.00;;;;;;5048828;28;20028;-62
2023/04/30 05:56:01;;;;;;;28.80;22.88;;;18.20;1.00;;;;;;5047564;28;20035;-62
2023/04/30 05:58:26;;;;;;;26.40;23.67;;;18.20;1.00;;;;;;5044048;28;20055;-62
2023/04/30 06:00:52;;;;;;;27.25;24.15;;;18.40;1.00;;;;;;5046796;28;20022;-62
2023/04/30 06:03:19;;;;;;;29.80;24.42;;;18.30;1.00;;;;;;5038939;28;20104;-62
2023/04/30 06:05:45;;;;;;;27.00;24.15;;;18.30;1.00;;;;;;5036998;28;20105;-62
2023/04/30 06:08:11;;;;;;;27.98;25.05;;;18.40;1.00;;;;;;5034444;28;20021;-62
2023/04/30 06:10:38;;;;;;;31.52;25.95;;;18.40;1.00;;;;;;5042329;28;20033;-62
2023/04/30 06:13:04;;;;;;;31.38;26.58;;;18.40;1.00;;;;;;5033835;28;20022;-62
2023/04/30 06:15:30;;;;;;;32.63;26.48;;;18.50;1.00;;;;;;5033978;28;20029;-62
2023/04/30 06:17:55;;;;;;;28.25;25.27;;;18.50;1.00;;;;;;5033719;28;20050;-62
2023/04/30 06:20:21;;;;;;;28.08;25.08;;;18.50;1.00;;;;;;5034228;28;20021;-62
2023/04/30 06:22:47;;;;;;;36.75;25.38;;;18.50;1.00;;;;;;5033352;28;20022;-62
2023/04/30 06:25:12;;;;;;;27.60;24.63;;;18.50;1.00;;;;;;5032968;28;20026;-62
2023/04/30 06:27:38;;;;;;;30.20;24.38;;;18.60;1.00;;;;;;5033339;28;20045;-62
2023/04/30 06:30:04;;;;;;;27.48;24.58;;;18.60;1.00;;;;;;5024374;28;20029;-62
2023/04/30 06:32:30;;;;;;;30.80;24.77;;;18.50;1.00;;;;;;5033598;28;20067;-62
2023/04/30 06:34:55;;;;;;;27.70;23.88;;;18.50;1.00;;;;;;5032626;28;20038;-62
2023/04/30 06:37:21;;;;;;;28.73;25.65;;;18.50;1.00;;;;;;5032874;28;20024;-62
2023/04/30 06:39:47;;;;;;;29.10;25.98;;;18.50;1.00;;;;;;5032178;28;20455;-62
2023/04/30 06:42:14;;;;;;;27.60;24.80;;;18.50;1.00;;;;;;5032938;28;20029;-62
2023/04/30 06:44:39;;;;;;;29.88;24.90;;;18.60;1.00;;;;;;5033761;28;20131;-62
2023/04/30 06:47:05;;;;;;;28.48;25.58;;;18.60;1.00;;;;;;5033265;28;20487;-62
2023/04/30 06:49:31;;;;;;;27.20;24.30;;;18.70;1.00;;;;;;5033741;28;20475;-62
2023/04/30 06:51:57;;;;;;;27.80;24.90;;;18.80;1.00;;;;;;5032599;28;20084;-62
2023/04/30 06:54:25;;;;;;;26.85;23.33;;;18.80;1.00;;;;;;5033336;28;20022;-62
2023/04/30 06:56:51;;;;;;;28.17;24.85;;;18.90;1.00;;;;;;5033101;28;20071;-62
2023/04/30 06:59:17;;;;;;;27.27;23.95;;;18.90;1.00;;;;;;5032896;28;20072;-62
2023/04/30 07:01:42;;;;;;;26.77;22.83;;;18.90;1.00;;;;;;5033098;28;20029;-62
2023/04/30 07:04:08;;;;;;;26.15;23.35;;;19.00;1.00;;;;;;5033213;28;20026;-62
2023/04/30 07:06:34;;;;;;;28.23;23.35;;;19.00;1.00;;;;;;5033076;28;20045;-61
2023/04/30 07:08:59;;;;;;;26.55;23.20;;;19.10;1.00;;;;;;5033465;28;20033;-62
2023/04/30 07:11:25;;;;;;;25.38;22.67;;;19.20;1.00;;;;;;5034339;28;20025;-62
2023/04/30 07:13:52;;;;;;;25.20;22.23;;;19.10;1.00;;;;;;5033216;28;20387;-62
2023/04/30 07:16:26;;;;;;;23.77;21.17;;;19.20;1.00;;;;;;5019206;28;20365;-61
2023/04/30 07:18:52;;;;;;;25.40;21.40;;;19.20;1.00;;;;;;5026574;28;20038;-62
2023/04/30 07:21:17;;;;;;;25.73;20.80;;;19.20;1.00;;;;;;5032626;28;20036;-62
2023/04/30 07:23:44;;;;;;;23.33;20.20;;;19.20;1.00;;;;;;5033293;28;20033;-62
2023/04/30 07:26:10;;;;;;;22.05;19.85;;;19.20;1.00;;;;;;5032900;28;20018;-62
2023/04/30 07:28:35;;;;;;;21.38;19.13;;;19.20;1.00;;;;;;5032936;28;20041;-62
2023/04/30 07:31:01;;;;;;;21.10;19.00;;;19.30;1.00;;;;;;5032196;28;20029;-62
2023/04/30 07:33:27;;;;;;;23.48;20.02;;;19.30;1.00;;;;;;5032904;28;20032;-62
2023/04/30 07:35:54;;;;;;;22.88;19.15;;;19.30;1.00;;;;;;5032695;28;20049;-62
2023/04/30 07:38:20;;;;;;;20.40;18.30;;;19.30;1.00;;;;;;5032356;28;20515;-62
2023/04/30 07:40:46;;;;;;;20.85;18.65;;;19.30;1.00;;;;;;5032552;28;20029;-62
2023/04/30 07:43:11;;;;;;;19.15;17.08;;;19.40;1.00;;;;;;5032519;28;20100;-62
2023/04/30 07:45:37;;;;;;;18.55;16.65;;;19.40;1.00;;;;;;5033095;28;20609;-62
2023/04/30 07:48:03;;;;;;;17.33;15.52;;;19.40;1.00;;;;;;5032586;28;20061;-62
2023/04/30 07:50:32;;;;;;;16.55;14.50;;;19.50;1.00;;;;;;5033135;28;20029;-62
2023/04/30 07:52:58;;;;;;;19.52;15.35;;;19.40;1.00;;;;;;5032182;28;20035;-62
2023/04/30 07:55:24;;;;;;;17.40;15.13;;;19.50;1.00;;;;;;5028123;28;20124;-61
2023/04/30 07:57:50;;;;;;;19.10;15.10;;;19.50;1.00;;;;;;5032653;28;20558;-62
2023/04/30 08:00:16;;;;;;;17.35;14.02;;;19.60;1.00;;;;;;5032209;28;20029;-62
2023/04/30 08:02:44;;;;;;;17.85;14.85;;;19.60;1.00;;;;;;5032280;28;20147;-62
2023/04/30 08:05:10;;;;;;;22.60;14.73;;;19.70;1.00;;;;;;5033775;28;20041;-62
2023/04/30 08:07:36;;;;;;;19.98;13.85;;;19.70;1.00;;;;;;5035121;28;20030;-61
2023/04/30 08:10:01;;;;;;;21.42;19.08;;;19.80;1.00;;;;;;5034399;28;20395;-62
2023/04/30 08:12:27;;;;;;;20.02;17.38;;;19.70;1.00;;;;;;5038247;28;20041;-61
2023/04/30 08:15:02;;;;;;;15.50;13.75;;;19.80;1.00;;;;;;5035630;28;20065;-61
2023/04/30 08:17:30;;;;;;;16.50;13.88;;;19.90;1.00;;;;;;5033586;28;20458;-62
2023/04/30 08:19:56;;;;;;;16.77;13.77;;;19.90;1.00;;;;;;5035382;28;20029;-62
2023/04/30 08:22:22;;;;;;;18.33;14.50;;;19.90;1.00;;;;;;5033229;28;20437;-62
2023/04/30 08:24:48;;;;;;;15.55;13.68;;;19.90;1.00;;;;;;5021977;28;20049;-62
2023/04/30 08:27:14;;;;;;;15.20;13.02;;;19.80;1.00;;;;;;5034667;28;20110;-62
2023/04/30 08:29:39;;;;;;;14.90;12.77;;;19.90;1.00;;;;;;5035956;28;20022;-62
2023/04/30 08:32:05;;;;;;;19.05;13.68;;;20.00;1.00;;;;;;5035538;28;20395;-61
2023/04/30 08:34:31;;;;;;;15.02;13.35;;;20.00;1.00;;;;;;5035905;28;20032;-62
2023/04/30 08:36:57;;;;;;;15.98;13.25;;;20.00;1.00;;;;;;5035794;28;20123;-62
2023/04/30 08:39:23;;;;;;;18.05;13.77;;;20.20;1.00;;;;;;5035713;28;20111;-62
2023/04/30 08:41:55;;;;;;;15.35;13.32;;;20.20;1.00;;;;;;5034766;28;20048;-62
2023/04/30 08:44:22;;;;;;;14.15;12.65;;;20.30;1.00;;;;;;5035690;28;20030;-62
2023/04/30 08:46:55;;;;;;;17.38;13.40;;;20.30;1.00;;;;;;5035937;28;20383;-62
2023/04/30 08:49:21;;;;;;;16.25;13.13;;;20.30;1.00;;;;;;5035842;28;20035;-62
2023/04/30 08:51:48;;;;;;;16.25;13.85;;;20.30;1.00;;;;;;5035904;28;20032;-62
2023/04/30 08:54:14;;;;;;;17.25;12.68;;;20.40;1.00;;;;;;5035266;28;20057;-62
2023/04/30 08:56:40;;;;;;;14.63;13.05;;;20.50;1.00;;;;;;5035100;28;20120;-62
2023/04/30 08:59:06;;;;;;;15.45;13.40;;;20.60;1.00;;;;;;5035697;28;20025;-61
2023/04/30 09:01:33;;;;;;;13.90;12.00;;;20.60;1.00;;;;;;5034854;28;20502;-61
2023/04/30 09:03:59;;;;;;;17.35;15.38;;;20.60;1.00;;;;;;5035220;28;20017;-62
2023/04/30 09:06:26;;;;;;;16.13;13.70;;;20.70;1.00;;;;;;5035288;28;20479;-62
2023/04/30 09:08:53;;;;;;;14.68;12.60;;;20.70;1.00;;;;;;5032632;28;20072;-61
2023/04/30 09:11:25;;;;;;;14.10;12.63;;;20.80;1.00;;;;;;5036497;28;20033;-62
2023/04/30 09:13:53;;;;;;;13.63;12.23;;;20.90;1.00;;;;;;5033856;28;20399;-61
2023/04/30 09:16:20;;;;;;;17.80;13.00;;;21.00;1.00;;;;;;5028045;28;20037;-61
2023/04/30 09:18:46;;;;;;;13.52;12.15;;;21.10;1.00;;;;;;5034392;28;20525;-61
2023/04/30 09:21:12;;;;;;;15.95;12.60;;;21.20;1.00;;;;;;5031058;28;20018;-62
2023/04/30 09:24:01;;;;;;;16.02;12.35;;;21.30;1.00;;;;;;5032924;28;20083;-62
2023/04/30 09:26:32;;;;;;;13.45;11.02;;;21.40;1.00;;;;;;5034354;28;20030;-62
2023/04/30 09:28:59;;;;;;;16.35;12.77;;;21.40;1.00;;;;;;5033439;28;20057;-62
2023/04/30 09:31:26;;;;;;;14.98;13.07;;;21.40;1.00;;;;;;5032365;28;20364;-62
2023/04/30 09:33:53;;;;;;;15.27;13.20;;;21.50;1.00;;;;;;5033203;28;20034;-62
2023/04/30 09:36:19;;;;;;;15.13;13.48;;;21.50;1.00;;;;;;5032580;28;20079;-62
2023/04/30 09:38:45;;;;;;;15.32;13.50;;;21.60;1.00;;;;;;5032435;28;20052;-61
2023/04/30 09:41:23;;;;;;;15.13;13.30;;;21.60;1.00;;;;;;5032673;28;20502;-61
2023/04/30 09:43:49;;;;;;;15.13;13.57;;;21.60;1.00;;;;;;5037369;28;20048;-61
2023/04/30 09:46:17;;;;;;;16.23;13.35;;;21.60;1.00;;;;;;5046945;28;20486;-61
2023/04/30 09:48:43;;;;;;;16.70;14.32;;;21.70;1.00;;;;;;5037244;28;20124;-61
2023/04/30 09:51:09;;;;;;;16.00;14.02;;;21.70;1.00;;;;;;5036213;28;20474;-61
2023/04/30 09:53:41;;;;;;;16.55;12.93;;;21.70;1.00;;;;;;5035071;28;20051;-61
2023/04/30 09:56:08;;;;;;;15.57;13.30;;;21.60;1.00;;;;;;5053001;28;20052;-60
2023/04/30 09:58:37;;;;;;;15.65;13.32;;;21.70;1.00;;;;;;5042652;28;20029;-61
2023/04/30 10:01:10;;;;;;;16.67;13.05;;;21.70;1.00;;;;;;5038044;28;20548;-61
2023/04/30 10:03:41;;;;;;;17.35;14.27;;;21.70;1.00;;;;;;5038954;28;20108;-60
2023/04/30 10:06:07;;;;;;;15.88;12.30;;;21.80;1.00;;;;;;5043219;28;20040;-61
2023/04/30 10:08:41;;;;;;;16.17;13.75;;;22.00;1.00;;;;;;5044167;28;20025;-61
2023/04/30 10:11:07;;;;;;;14.60;13.07;;;22.00;1.00;;;;;;5043677;28;20517;-61
2023/04/30 10:14:01;;;;;;;16.33;14.18;;;22.20;1.00;;;;;;5047731;28;20024;-61
2023/04/30 10:16:44;;;;;;;11.90;10.77;;;22.20;1.00;;;;;;5040682;28;20506;-61
2023/04/30 10:19:17;;;;;;;14.27;12.02;;;22.20;1.00;;;;;;5043328;28;20509;-61
2023/04/30 10:21:45;;;;;;;16.88;12.15;;;22.40;1.00;;;;;;5048074;28;20021;-61
2023/04/30 10:24:12;;;;;;;15.98;12.55;;;22.50;1.00;;;;;;5045358;28;20033;-61
2023/04/30 10:26:40;;;;;;;22.73;18.58;;;22.50;1.00;;;;;;5033164;28;20116;-60
2023/04/30 10:29:16;;;;;;;17.92;14.85;;;22.50;1.00;;;;;;5038798;28;20132;-60
2023/04/30 10:31:47;;;;;;;14.60;12.60;;;22.50;1.00;;;;;;5026363;28;20540;-60
2023/04/30 10:34:38;;;;;;;14.30;11.77;;;22.40;1.00;;;;;;5041349;28;20037;-60
2023/04/30 10:37:21;;;;;;;12.93;11.57;;;22.50;1.00;;;;;;5036312;28;20168;-60
2023/04/30 10:39:48;;;;;;;14.25;10.68;;;22.50;1.00;;;;;;5031518;28;20083;-60
2023/04/30 10:42:13;;;;;;;12.75;10.90;;;22.60;1.00;;;;;;5032317;28;20036;-60
2023/04/30 10:44:39;;;;;;;12.65;11.38;;;22.50;1.00;;;;;;5040442;28;20025;-60
2023/04/30 10:47:06;;;;;;;13.43;12.07;;;22.60;1.00;;;;;;5035602;28;20379;-58
2023/04/30 10:49:32;;;;;;;13.15;11.05;;;22.80;1.00;;;;;;5037336;28;20378;-58
2023/04/30 10:51:59;;;;;;;15.85;13.23;;;23.00;1.00;;;;;;5030448;28;20519;-61
2023/04/30 10:54:30;;;;;;;13.98;12.02;;;23.00;1.00;;;;;;5030626;28;20467;-58
2023/04/30 10:57:13;;;;;;;12.80;11.50;;;22.90;1.00;;;;;;5037921;28;20033;-58
2023/04/30 11:00:07;;;;;;;16.23;13.10;;;23.00;1.00;;;;;;5028792;28;20098;-58
2023/04/30 11:02:43;;;;;;;16.45;12.77;;;23.20;1.00;;;;;;5036199;28;20075;-59
2023/04/30 11:05:10;;;;;;;14.50;12.88;;;23.20;1.00;;;;;;5028067;28;20080;-59
2023/04/30 11:07:36;;;;;;;13.13;11.63;;;23.20;1.00;;;;;;5028714;28;20085;-57
2023/04/30 11:10:07;;;;;;;13.45;11.35;;;23.30;1.00;;;;;;5040175;28;20029;-58
2023/04/30 11:12:32;;;;;;;13.80;11.82;;;23.20;1.00;;;;;;5036954;28;20109;-59
2023/04/30 11:15:12;;;;;;;14.02;10.98;;;23.20;1.00;;;;;;5031732;28;20117;-58
2023/04/30 11:17:37;;;;;;;14.07;11.27;;;23.20;1.00;;;;;;5029138;28;20026;-57
2023/04/30 11:20:04;;;;;;;14.90;11.27;;;23.10;1.00;;;;;;5030205;28;20527;-58
2023/04/30 11:22:34;;;;;;;15.63;11.45;;;23.10;1.00;;;;;;5031419;28;20033;-59
2023/04/30 11:25:04;;;;;;;11.00;9.90;;;23.20;1.00;;;;;;5031194;28;20383;-58
2023/04/30 11:27:32;;;;;;;12.15;10.20;;;23.10;1.00;;;;;;5032351;28;20032;-58
2023/04/30 11:29:59;;;;;;;12.70;10.20;;;23.00;1.00;;;;;;5029692;28;20031;-58
2023/04/30 11:32:30;;;;;;;11.52;10.25;;;23.20;1.00;;;;;;5030924;28;20612;-57
2023/04/30 11:34:56;;;;;;;10.45;9.45;;;23.40;1.00;;;;;;5030766;28;20128;-57
2023/04/30 11:37:43;;;;;;;10.70;9.57;;;23.40;1.00;;;;;;5031633;28;20033;-58
2023/04/30 11:40:13;;;;;;;9.98;8.77;;;23.10;1.00;;;;;;5035537;28;20029;-59
2023/04/30 11:42:42;;;;;;;10.75;9.15;;;23.10;1.00;;;;;;5035129;28;20036;-57
2023/04/30 11:45:19;;;;;;;9.57;8.57;;;23.10;1.00;;;;;;5034085;28;20091;-58
2023/04/30 11:47:50;;;;;;;9.77;8.18;;;23.00;1.00;;;;;;5031714;28;20056;-59
2023/04/30 11:50:20;;;;;;;13.88;9.77;;;22.80;1.00;;;;;;5033494;28;20382;-58
2023/04/30 11:52:49;;;;;;;10.93;9.05;;;22.70;1.00;;;;;;5036127;28;20021;-59
2023/04/30 11:55:17;;;;;;;14.85;9.98;;;23.00;1.00;;;;;;5035760;28;20064;-60
2023/04/30 11:57:45;;;;;;;13.93;9.50;;;23.20;1.00;;;;;;5035663;28;20021;-60
2023/04/30 12:00:19;;;;;;;11.52;9.93;;;23.10;1.00;;;;;;5034914;28;20025;-60
2023/04/30 12:02:49;;;;;;;11.55;9.60;;;22.90;1.00;;;;;;5034951;28;20079;-60
2023/04/30 12:05:19;;;;;;;15.05;11.20;;;23.00;1.00;;;;;;5035299;28;20041;-58
2023/04/30 12:07:49;;;;;;;10.40;9.02;;;23.10;1.00;;;;;;5031971;28;20128;-58
2023/04/30 12:10:15;;;;;;;23.38;12.82;;;23.30;1.00;;;;;;5035761;28;20044;-57
2023/04/30 12:12:42;;;;;;;14.30;12.20;;;23.50;1.00;;;;;;5050457;28;20427;-57
2023/04/30 12:15:13;;;;;;;11.23;8.95;;;23.40;1.00;;;;;;5036224;28;20072;-57
2023/04/30 12:17:39;;;;;;;12.73;9.80;;;23.00;1.00;;;;;;5032906;28;20121;-56
2023/04/30 12:20:06;;;;;;;10.15;9.25;;;22.80;1.00;;;;;;5035724;28;20438;-58
2023/04/30 12:22:32;;;;;;;11.05;9.95;;;22.90;1.00;;;;;;5036228;28;20025;-57
2023/04/30 12:24:59;;;;;;;12.30;10.05;;;22.70;1.00;;;;;;5034035;28;20112;-57
2023/04/30 12:27:26;;;;;;;9.95;8.90;;;22.70;1.00;;;;;;5030160;28;20443;-58
2023/04/30 12:29:53;;;;;;;10.10;9.00;;;22.50;1.00;;;;;;5035692;28;20021;-59
2023/04/30 12:32:21;;;;;;;9.70;8.50;;;22.50;1.00;;;;;;5035812;28;20555;-55
2023/04/30 12:34:47;;;;;;;9.23;8.32;;;22.70;1.00;;;;;;5036079;28;20419;-57
2023/04/30 12:37:16;;;;;;;12.65;9.57;;;22.80;1.00;;;;;;5036038;28;20048;-59
2023/04/30 12:39:42;;;;;;;10.13;8.60;;;23.10;1.00;;;;;;5035612;28;20499;-59
2023/04/30 12:42:07;;;;;;;11.40;8.52;;;23.10;1.00;;;;;;5034988;28;20117;-58